createdAt,value
2022-10-16T00:01:24.856Z,98104.00
2022-10-16T00:03:52.978Z,98109.31
2022-10-16T00:06:22.307Z,98108.56
2022-10-16T00:08:50.479Z,98106.22
2022-10-16T00:11:21.490Z,98107.50
2022-10-16T00:13:51.693Z,98112.16
2022-10-16T00:16:19.871Z,98112.91
2022-10-16T00:18:47.812Z,98110.97
2022-10-16T00:21:18.603Z,98109.47
2022-10-16T00:24:07.539Z,98116.91
2022-10-16T00:26:36.937Z,98116.16
2022-10-16T00:29:06.208Z,98124.22
2022-10-16T00:31:33.944Z,98119.59
2022-10-16T00:34:01.842Z,98129.69
2022-10-16T00:36:29.425Z,98122.72
2022-10-16T00:41:34.136Z,98128.56
2022-10-16T00:44:05.158Z,98134.03
2022-10-16T00:46:43.591Z,98133.44
2022-10-16T00:49:18.607Z,98129.53
2022-10-16T00:51:51.032Z,98138.28
2022-10-16T00:54:26.632Z,98126.00
2022-10-16T00:56:56.046Z,98138.66
2022-10-16T00:59:29.874Z,98138.00
2022-10-16T01:01:57.577Z,98130.53
2022-10-16T01:04:26.641Z,98134.59
2022-10-16T01:07:25.981Z,98140.03
2022-10-16T01:10:12.193Z,98131.81
2022-10-16T01:12:48.759Z,98134.66
2022-10-16T01:15:22.000Z,98131.34
2022-10-16T01:18:03.687Z,98137.72
2022-10-16T01:20:35.695Z,98141.84
2022-10-16T01:23:12.401Z,98146.56
2022-10-16T01:26:07.327Z,98147.44
2022-10-16T01:29:01.935Z,98150.59
2022-10-16T01:31:34.270Z,98148.91
2022-10-16T01:34:11.368Z,98147.75
2022-10-16T01:36:43.541Z,98148.91
2022-10-16T01:39:12.494Z,98146.56
2022-10-16T01:41:45.863Z,98138.06
2022-10-16T01:44:24.132Z,98144.78
2022-10-16T01:46:54.168Z,98149.72
2022-10-16T01:49:23.476Z,98148.94
2022-10-16T01:51:55.244Z,98149.66
2022-10-16T01:54:27.212Z,98147.28
2022-10-16T01:56:56.493Z,98148.44
2022-10-16T01:59:27.000Z,98154.63
2022-10-16T02:02:01.080Z,98158.16
2022-10-16T02:04:34.299Z,98157.03
2022-10-16T02:07:02.458Z,98163.53
2022-10-16T02:09:32.038Z,98164.34
2022-10-16T02:12:03.802Z,98168.25
2022-10-16T02:14:32.023Z,98158.84
2022-10-16T02:16:59.629Z,98158.81
2022-10-16T02:19:27.231Z,98164.94
2022-10-16T02:22:06.966Z,98164.03
2022-10-16T02:24:44.722Z,98168.25
2022-10-16T02:27:18.971Z,98170.16
2022-10-16T02:29:59.961Z,98170.19
2022-10-16T02:32:32.909Z,98169.41
2022-10-16T02:35:01.673Z,98173.22
2022-10-16T02:37:31.148Z,98171.56
2022-10-16T02:40:00.204Z,98166.19
2022-10-16T02:42:35.499Z,98177.97
2022-10-16T02:45:03.651Z,98174.69
2022-10-16T02:47:31.169Z,98182.81
2022-10-16T02:49:58.665Z,98176.59
2022-10-16T02:52:26.144Z,98175.03
2022-10-16T02:54:53.689Z,98175.03
2022-10-16T02:57:21.143Z,98176.59
2022-10-16T02:59:48.618Z,98183.16
2022-10-16T03:02:16.017Z,98173.44
2022-10-16T03:04:43.526Z,98185.47
2022-10-16T03:07:10.952Z,98182.75
2022-10-16T03:09:38.368Z,98180.81
2022-10-16T03:12:05.998Z,98190.13
2022-10-16T03:14:33.409Z,98183.53
2022-10-16T03:17:00.865Z,98186.28
2022-10-16T03:19:28.235Z,98197.13
2022-10-16T03:21:55.658Z,98192.84
2022-10-16T03:24:23.055Z,98197.91
2022-10-16T03:26:50.536Z,98204.09
2022-10-16T03:29:18.008Z,98203.69
2022-10-16T03:31:45.522Z,98207.59
2022-10-16T03:34:12.868Z,98199.84
2022-10-16T03:36:43.162Z,98210.44
2022-10-16T03:39:10.739Z,98212.28
2022-10-16T03:41:38.113Z,98209.97
2022-10-16T03:44:05.579Z,98217.31
2022-10-16T03:46:33.138Z,98211.13
2022-10-16T03:49:00.446Z,98213.94
2022-10-16T03:51:27.855Z,98217.06
2022-10-16T03:53:55.327Z,98218.19
2022-10-16T03:56:22.768Z,98221.00
2022-10-16T03:58:50.159Z,98226.44
2022-10-16T04:01:17.668Z,98222.97
2022-10-16T04:03:45.273Z,98224.50
2022-10-16T04:06:12.653Z,98227.66
2022-10-16T04:08:40.472Z,98226.16
2022-10-16T04:11:07.844Z,98220.72
2022-10-16T04:13:35.262Z,98232.00
2022-10-16T04:16:02.686Z,98232.78
2022-10-16T04:18:30.352Z,98239.00
2022-10-16T04:20:57.759Z,98230.44
2022-10-16T04:23:25.327Z,98242.78
2022-10-16T04:25:52.753Z,98243.59
2022-10-16T04:28:20.268Z,98239.72
2022-10-16T04:30:47.719Z,98244.75
2022-10-16T04:33:15.208Z,98250.25
2022-10-16T04:35:42.720Z,98244.44
2022-10-16T04:38:10.103Z,98246.03
2022-10-16T04:40:37.884Z,98244.88
2022-10-16T04:43:06.877Z,98251.91
2022-10-16T04:45:34.335Z,98250.00
2022-10-16T04:48:01.838Z,98252.00
2022-10-16T04:50:29.337Z,98253.63
2022-10-16T04:53:08.340Z,98266.13
2022-10-16T04:55:36.003Z,98255.31
2022-10-16T04:58:03.406Z,98251.00
2022-10-16T05:00:30.798Z,98247.09
2022-10-16T05:03:00.814Z,98257.69
2022-10-16T05:05:29.084Z,98252.28
2022-10-16T05:07:56.591Z,98258.53
2022-10-16T05:10:23.911Z,98256.97
2022-10-16T05:12:52.581Z,98251.59
2022-10-16T05:15:19.964Z,98245.78
2022-10-16T05:17:47.399Z,98259.41
2022-10-16T05:20:14.996Z,98264.13
2022-10-16T05:22:42.348Z,98264.56
2022-10-16T05:25:09.796Z,98265.41
2022-10-16T05:27:37.180Z,98264.50
2022-10-16T05:30:07.426Z,98263.03
2022-10-16T05:32:37.251Z,98266.59
2022-10-16T05:35:07.488Z,98261.22
2022-10-16T05:37:37.516Z,98263.56
2022-10-16T05:40:06.187Z,98271.38
2022-10-16T05:42:33.539Z,98272.91
2022-10-16T05:45:01.038Z,98276.81
2022-10-16T05:47:28.981Z,98267.47
2022-10-16T05:49:56.721Z,98269.41
2022-10-16T05:52:24.079Z,98272.13
2022-10-16T05:54:51.566Z,98282.22
2022-10-16T05:57:19.170Z,98276.00
2022-10-16T05:59:47.053Z,98287.28
2022-10-16T06:02:15.183Z,98281.06
2022-10-16T06:04:42.654Z,98281.84
2022-10-16T06:07:10.016Z,98285.72
2022-10-16T06:09:37.426Z,98290.34
2022-10-16T06:12:06.321Z,98289.97
2022-10-16T06:14:33.917Z,98283.31
2022-10-16T06:17:01.262Z,98284.44
2022-10-16T06:19:28.750Z,98289.09
2022-10-16T06:21:56.149Z,98285.97
2022-10-16T06:24:23.663Z,98289.47
2022-10-16T06:26:51.070Z,98292.13
2022-10-16T06:29:18.506Z,98290.22
2022-10-16T06:31:45.948Z,98289.81
2022-10-16T06:34:13.383Z,98297.13
2022-10-16T06:36:41.327Z,98295.94
2022-10-16T06:39:08.944Z,98295.53
2022-10-16T06:41:36.577Z,98297.84
2022-10-16T06:44:16.452Z,98293.22
2022-10-16T06:46:43.915Z,98288.97
2022-10-16T06:49:11.230Z,98290.88
2022-10-16T06:51:43.381Z,98286.25
2022-10-16T06:54:11.346Z,98290.88
2022-10-16T06:56:39.152Z,98286.59
2022-10-16T06:59:06.509Z,98288.97
2022-10-16T07:01:34.483Z,98292.84
2022-10-16T07:04:03.451Z,98302.16
2022-10-16T07:06:33.697Z,98298.69
2022-10-16T07:09:04.804Z,98305.31
2022-10-16T07:11:32.174Z,98297.16
2022-10-16T07:13:59.779Z,98301.41
2022-10-16T07:16:29.714Z,98294.44
2022-10-16T07:19:00.640Z,98313.88
2022-10-16T07:21:38.167Z,98313.91
2022-10-16T07:24:08.564Z,98314.69
2022-10-16T07:26:37.889Z,98302.63
2022-10-16T07:29:05.322Z,98298.69
2022-10-16T07:31:32.927Z,98298.72
2022-10-16T07:34:01.607Z,98312.34
2022-10-16T07:36:29.158Z,98309.97
2022-10-16T07:38:58.998Z,98313.41
2022-10-16T07:41:28.441Z,98301.78
2022-10-16T07:43:57.724Z,98313.81
2022-10-16T07:46:25.226Z,98319.22
2022-10-16T07:48:52.920Z,98319.63
2022-10-16T07:51:23.072Z,98321.56
2022-10-16T07:53:51.053Z,98324.63
2022-10-16T07:56:19.684Z,98324.63
2022-10-16T07:58:47.758Z,98320.69
2022-10-16T08:01:18.086Z,98327.72
2022-10-16T08:03:47.760Z,98327.72
2022-10-16T08:06:15.938Z,98320.69
2022-10-16T08:08:43.526Z,98321.84
2022-10-16T08:11:11.101Z,98313.97
2022-10-16T08:13:38.985Z,98330.31
2022-10-16T08:16:09.020Z,98323.69
2022-10-16T08:18:39.460Z,98325.66
2022-10-16T08:21:07.943Z,98331.88
2022-10-16T08:23:35.839Z,98335.69
2022-10-16T08:26:06.791Z,98337.25
2022-10-16T08:28:34.671Z,98336.03
2022-10-16T08:33:49.658Z,98328.25
2022-10-16T08:36:17.859Z,98332.13
2022-10-16T08:38:45.340Z,98331.75
2022-10-16T08:41:49.730Z,98340.06
2022-10-16T08:44:50.685Z,98340.81
2022-10-16T08:47:26.542Z,98343.03
2022-10-16T08:50:01.966Z,98336.75
2022-10-16T08:52:34.158Z,98333.53
2022-10-16T08:55:01.774Z,98335.44
2022-10-16T08:57:32.708Z,98338.53
2022-10-16T09:00:14.539Z,98342.56
2022-10-16T09:02:54.951Z,98345.66
2022-10-16T09:05:50.202Z,98351.47
2022-10-16T09:08:38.591Z,98338.25
2022-10-16T09:11:15.552Z,98348.56
2022-10-16T09:14:02.057Z,98357.97
2022-10-16T09:16:38.210Z,98356.00
2022-10-16T09:19:30.321Z,98365.38
2022-10-16T09:22:00.774Z,98355.88
2022-10-16T09:24:29.373Z,98360.44
2022-10-16T09:26:57.161Z,98364.66
2022-10-16T09:29:26.409Z,98361.56
2022-10-16T09:31:56.138Z,98372.81
2022-10-16T09:34:28.648Z,98365.91
2022-10-16T09:36:58.727Z,98370.09
2022-10-16T09:39:26.457Z,98372.38
2022-10-16T09:41:54.409Z,98380.88
2022-10-16T09:44:29.611Z,98389.53
2022-10-16T09:47:06.070Z,98383.72
2022-10-16T09:49:33.590Z,98381.25
2022-10-16T09:52:14.707Z,98388.03
2022-10-16T09:54:56.740Z,98384.50
2022-10-16T09:57:26.757Z,98391.28
2022-10-16T09:59:59.475Z,98367.94
2022-10-16T10:02:31.568Z,98391.72
2022-10-16T10:04:59.028Z,98390.44
2022-10-16T10:07:29.393Z,98392.09
2022-10-16T10:09:58.617Z,98394.44
2022-10-16T10:12:29.182Z,98394.81
2022-10-16T10:14:59.259Z,98393.16
2022-10-16T10:17:28.872Z,98399.41
2022-10-16T10:20:24.189Z,98399.50
2022-10-16T10:22:53.483Z,98395.34
2022-10-16T10:25:40.432Z,98397.38
2022-10-16T10:28:28.511Z,98408.75
2022-10-16T10:31:04.893Z,98394.50
2022-10-16T10:33:39.324Z,98407.25
2022-10-16T10:36:15.699Z,98405.88
2022-10-16T10:38:58.311Z,98407.16
2022-10-16T10:41:32.039Z,98406.28
2022-10-16T10:44:24.472Z,98418.22
2022-10-16T10:46:55.795Z,98407.78
2022-10-16T10:49:50.146Z,98410.66
2022-10-16T10:52:45.554Z,98416.88
2022-10-16T10:55:51.300Z,98417.97
2022-10-16T10:58:38.103Z,98415.13
2022-10-16T11:01:34.430Z,98418.53
2022-10-16T11:04:31.022Z,98412.97
2022-10-16T11:07:18.565Z,98413.19
2022-10-16T11:09:50.931Z,98420.78
2022-10-16T11:12:27.420Z,98415.31
2022-10-16T11:15:12.801Z,98411.81
2022-10-16T11:17:43.706Z,98416.69
2022-10-16T11:21:02.301Z,98422.38
2022-10-16T11:23:47.986Z,98436.16
2022-10-16T11:26:23.574Z,98433.06
2022-10-16T11:28:53.925Z,98437.94
2022-10-16T11:31:41.539Z,98425.22
2022-10-16T11:34:49.230Z,98425.03
2022-10-16T11:37:24.676Z,98437.56
2022-10-16T11:39:55.739Z,98434.47
2022-10-16T11:42:38.381Z,98443.44
2022-10-16T11:45:32.334Z,98443.06
2022-10-16T11:48:16.118Z,98441.50
2022-10-16T11:50:47.950Z,98444.50
2022-10-16T11:53:25.727Z,98452.97
2022-10-16T11:55:53.332Z,98438.81
2022-10-16T11:58:30.540Z,98451.41
2022-10-16T12:01:05.030Z,98437.38
2022-10-16T12:03:41.851Z,98441.19
2022-10-16T12:06:21.679Z,98444.41
2022-10-16T12:08:49.667Z,98442.56
2022-10-16T12:11:28.973Z,98445.56
2022-10-16T12:14:22.210Z,98445.22
2022-10-16T12:16:54.112Z,98443.03
2022-10-16T12:19:23.099Z,98447.53
2022-10-16T12:21:52.566Z,98443.69
2022-10-16T12:24:26.616Z,98438.69
2022-10-16T12:26:54.273Z,98433.13
2022-10-16T12:29:41.008Z,98438.00
2022-10-16T12:32:45.675Z,98431.53
2022-10-16T12:35:23.814Z,98443.81
2022-10-16T12:37:53.194Z,98444.31
2022-10-16T12:40:23.560Z,98447.44
2022-10-16T12:42:50.947Z,98446.13
2022-10-16T12:45:33.356Z,98439.75
2022-10-16T12:48:03.424Z,98445.75
2022-10-16T12:50:37.760Z,98445.38
2022-10-16T12:53:20.281Z,98443.88
2022-10-16T12:56:10.147Z,98444.31
2022-10-16T12:58:56.163Z,98452.75
2022-10-16T13:01:29.702Z,98453.41
2022-10-16T13:04:20.973Z,98458.72
2022-10-16T13:06:48.348Z,98463.09
2022-10-16T13:09:41.640Z,98460.69
2022-10-16T13:12:24.259Z,98453.53
2022-10-16T13:15:19.236Z,98463.72
2022-10-16T13:17:58.569Z,98460.63
2022-10-16T13:20:37.495Z,98471.34
2022-10-16T13:23:26.271Z,98472.44
2022-10-16T13:26:55.329Z,98470.91
2022-10-16T13:29:23.710Z,98475.75
2022-10-16T13:31:51.492Z,98472.47
2022-10-16T13:34:23.564Z,98455.56
2022-10-16T13:36:53.972Z,98471.50
2022-10-16T13:39:31.099Z,98471.13
2022-10-16T13:42:04.882Z,98473.97
2022-10-16T13:44:47.318Z,98472.44
2022-10-16T13:47:22.056Z,98477.25
2022-10-16T13:50:02.003Z,98487.00
2022-10-16T13:52:31.210Z,98487.19
2022-10-16T13:55:01.767Z,98488.25
2022-10-16T13:57:31.357Z,98488.50
2022-10-16T14:00:00.532Z,98485.88
2022-10-16T14:02:40.653Z,98492.94
2022-10-16T14:05:11.887Z,98495.66
2022-10-16T14:07:39.924Z,98496.47
2022-10-16T14:10:21.674Z,98498.81
2022-10-16T14:12:57.424Z,98497.94
2022-10-16T14:15:24.998Z,98495.97
2022-10-16T14:17:54.431Z,98494.47
2022-10-16T14:20:27.754Z,98501.00
2022-10-16T14:23:04.605Z,98497.59
2022-10-16T14:25:34.142Z,98499.38
2022-10-16T14:28:23.866Z,98501.59
2022-10-16T14:30:54.477Z,98506.31
2022-10-16T14:33:31.130Z,98513.91
2022-10-16T14:36:04.427Z,98510.25
2022-10-16T14:38:32.854Z,98514.19
2022-10-16T14:41:01.435Z,98506.41
2022-10-16T14:43:40.554Z,98505.63
2022-10-16T14:46:15.328Z,98501.88
2022-10-16T14:48:50.124Z,98506.50
2022-10-16T14:51:21.759Z,98508.06
2022-10-16T14:53:50.002Z,98505.19
2022-10-16T14:56:21.816Z,98505.81
2022-10-16T14:58:51.223Z,98517.28
2022-10-16T15:01:19.328Z,98514.25
2022-10-16T15:03:47.014Z,98510.16
2022-10-16T15:06:16.331Z,98515.22
2022-10-16T15:08:43.965Z,98513.22
2022-10-16T15:11:19.815Z,98511.97
2022-10-16T15:13:47.790Z,98514.09
2022-10-16T15:16:17.590Z,98517.38
2022-10-16T15:18:46.670Z,98507.25
2022-10-16T15:21:34.303Z,98510.41
2022-10-16T15:24:04.764Z,98519.66
2022-10-16T15:26:37.302Z,98514.94
2022-10-16T15:29:05.977Z,98516.69
2022-10-16T15:31:35.449Z,98508.41
2022-10-16T15:34:05.588Z,98511.38
2022-10-16T15:36:38.275Z,98514.44
2022-10-16T15:39:13.754Z,98514.25
2022-10-16T15:41:42.714Z,98513.75
2022-10-16T15:44:10.456Z,98505.88
2022-10-16T15:46:38.573Z,98498.31
2022-10-16T15:49:06.119Z,98506.00
2022-10-16T15:51:34.380Z,98505.91
2022-10-16T15:54:03.183Z,98502.78
2022-10-16T15:56:31.834Z,98507.81
2022-10-16T15:59:00.146Z,98490.63
2022-10-16T16:01:28.411Z,98499.19
2022-10-16T16:03:56.799Z,98498.22
2022-10-16T16:06:25.143Z,98496.75
2022-10-16T16:08:53.011Z,98497.69
2022-10-16T16:11:24.898Z,98505.91
2022-10-16T16:13:52.270Z,98504.31
2022-10-16T16:16:21.352Z,98506.56
2022-10-16T16:18:50.575Z,98499.28
2022-10-16T16:21:18.574Z,98504.56
2022-10-16T16:23:45.987Z,98505.69
2022-10-16T16:26:28.769Z,98503.88
2022-10-16T16:28:58.023Z,98503.09
2022-10-16T16:31:27.961Z,98504.75
2022-10-16T16:33:56.136Z,98509.13
2022-10-16T16:38:57.667Z,98515.41
2022-10-16T16:41:27.673Z,98515.56
2022-10-16T16:43:57.204Z,98504.66
2022-10-16T16:46:24.680Z,98505.91
2022-10-16T16:48:54.131Z,98509.81
2022-10-16T16:51:21.636Z,98507.53
2022-10-16T16:53:51.776Z,98505.66
2022-10-16T16:56:21.234Z,98514.00
2022-10-16T16:58:51.152Z,98513.31
2022-10-16T17:01:21.010Z,98512.34
2022-10-16T17:03:51.627Z,98513.31
2022-10-16T17:06:25.607Z,98517.13
2022-10-16T17:08:53.009Z,98520.00
2022-10-16T17:11:23.804Z,98516.63
2022-10-16T17:13:56.827Z,98519.59
2022-10-16T17:16:29.619Z,98517.94
2022-10-16T17:19:01.361Z,98511.91
2022-10-16T17:21:30.804Z,98525.16
2022-10-16T17:24:01.576Z,98517.63
2022-10-16T17:26:29.419Z,98519.09
2022-10-16T17:28:59.055Z,98519.53
2022-10-16T17:31:34.414Z,98520.00
2022-10-16T17:34:03.998Z,98519.88
2022-10-16T17:36:34.305Z,98528.44
2022-10-16T17:39:04.947Z,98525.28
2022-10-16T17:41:33.952Z,98526.88
2022-10-16T17:44:01.665Z,98524.50
2022-10-16T17:46:30.204Z,98516.91
2022-10-16T17:48:57.782Z,98532.69
2022-10-16T17:51:30.415Z,98529.31
2022-10-16T17:54:01.340Z,98524.19
2022-10-16T17:56:30.756Z,98534.19
2022-10-16T17:59:00.696Z,98534.31
2022-10-16T18:01:32.075Z,98529.34
2022-10-16T18:04:03.444Z,98525.06
2022-10-16T18:06:33.776Z,98527.69
2022-10-16T18:09:02.286Z,98531.16
2022-10-16T18:11:30.183Z,98524.63
2022-10-16T18:13:59.444Z,98521.16
2022-10-16T18:16:28.897Z,98521.34
2022-10-16T18:19:00.108Z,98522.34
2022-10-16T18:21:28.890Z,98525.84
2022-10-16T18:23:58.460Z,98524.38
2022-10-16T18:26:26.690Z,98525.94
2022-10-16T18:28:56.214Z,98526.72
2022-10-16T18:31:26.558Z,98520.47
2022-10-16T18:33:56.415Z,98519.31
2022-10-16T18:36:29.862Z,98514.09
2022-10-16T18:38:58.336Z,98517.94
2022-10-16T18:41:27.915Z,98515.94
2022-10-16T18:43:56.595Z,98519.06
2022-10-16T18:46:25.914Z,98522.09
2022-10-16T18:48:56.694Z,98526.47
2022-10-16T18:51:29.743Z,98516.47
2022-10-16T18:54:03.175Z,98526.56
2022-10-16T18:56:32.239Z,98514.19
2022-10-16T18:59:02.659Z,98516.09
2022-10-16T19:01:31.891Z,98526.22
2022-10-16T19:04:02.191Z,98498.56
2022-10-16T19:06:30.473Z,98516.53
2022-10-16T19:08:57.969Z,98516.63
2022-10-16T19:11:26.918Z,98517.22
2022-10-16T19:13:57.435Z,98504.34
2022-10-16T19:16:29.227Z,98510.44
2022-10-16T19:19:00.044Z,98508.50
2022-10-16T19:21:29.762Z,98512.78
2022-10-16T19:23:59.450Z,98507.47
2022-10-16T19:26:28.402Z,98508.25
2022-10-16T19:28:58.644Z,98508.59
2022-10-16T19:31:27.729Z,98516.44
2022-10-16T19:33:57.886Z,98505.63
2022-10-16T19:36:33.403Z,98501.59
2022-10-16T19:39:06.095Z,98497.19
2022-10-16T19:41:34.279Z,98504.50
2022-10-16T19:44:07.803Z,98508.16
2022-10-16T19:46:37.672Z,98509.63
2022-10-16T19:49:11.128Z,98506.59
2022-10-16T19:51:39.290Z,98508.56
2022-10-16T19:54:09.307Z,98509.28
2022-10-16T19:56:37.718Z,98500.66
2022-10-16T19:59:07.771Z,98498.72
2022-10-16T20:01:35.558Z,98496.84
2022-10-16T20:04:03.485Z,98504.50
2022-10-16T20:06:31.106Z,98505.72
2022-10-16T20:08:58.788Z,98499.59
2022-10-16T20:11:29.490Z,98508.69
2022-10-16T20:13:57.850Z,98509.72
2022-10-16T20:16:26.723Z,98506.59
2022-10-16T20:18:54.271Z,98504.59
2022-10-16T20:21:25.005Z,98512.09
2022-10-16T20:23:53.006Z,98510.34
2022-10-16T20:26:22.544Z,98517.66
2022-10-16T20:28:50.507Z,98514.06
2022-10-16T20:31:22.915Z,98522.03
2022-10-16T20:33:51.760Z,98517.75
2022-10-16T20:36:21.195Z,98528.22
2022-10-16T20:38:48.697Z,98521.50
2022-10-16T20:41:17.587Z,98515.81
2022-10-16T20:43:48.383Z,98523.16
2022-10-16T20:46:19.411Z,98519.31
2022-10-16T20:48:47.360Z,98525.50
2022-10-16T20:51:21.340Z,98525.31
2022-10-16T20:53:53.254Z,98527.16
2022-10-16T20:56:20.871Z,98521.56
2022-10-16T20:58:48.483Z,98522.44
2022-10-16T21:01:18.246Z,98518.97
2022-10-16T21:03:51.459Z,98520.72
2022-10-16T21:06:18.986Z,98531.34
2022-10-16T21:08:46.831Z,98533.25
2022-10-16T21:11:17.587Z,98524.03
2022-10-16T21:13:45.281Z,98532.13
2022-10-16T21:16:15.301Z,98529.16
2022-10-16T21:18:44.717Z,98528.31
2022-10-16T21:21:21.472Z,98528.88
2022-10-16T21:23:50.618Z,98531.84
2022-10-16T21:26:21.259Z,98530.47
2022-10-16T21:28:48.705Z,98526.44
2022-10-16T21:31:19.336Z,98532.72
2022-10-16T21:33:47.963Z,98526.13
2022-10-16T21:36:21.519Z,98528.66
2022-10-16T21:38:49.388Z,98523.84
2022-10-16T21:41:26.559Z,98517.91
2022-10-16T21:43:55.584Z,98529.25
2022-10-16T21:46:25.394Z,98528.47
2022-10-16T21:48:56.987Z,98525.06
2022-10-16T21:51:29.802Z,98533.59
2022-10-16T21:53:57.301Z,98531.06
2022-10-16T21:56:24.722Z,98524.53
2022-10-16T21:58:52.584Z,98528.47
2022-10-16T22:01:22.717Z,98536.66
2022-10-16T22:03:50.592Z,98529.16
2022-10-16T22:08:51.779Z,98525.47
2022-10-16T22:11:23.168Z,98527.41
2022-10-16T22:13:54.253Z,98526.88
2022-10-16T22:16:27.324Z,98530.22
2022-10-16T22:18:56.618Z,98529.16
2022-10-16T22:21:24.875Z,98521.22
2022-10-16T22:23:52.406Z,98522.19
2022-10-16T22:26:21.568Z,98527.31
2022-10-16T22:28:48.981Z,98522.97
2022-10-16T22:31:16.617Z,98522.53
2022-10-16T22:33:45.384Z,98528.38
2022-10-16T22:36:15.139Z,98524.59
2022-10-16T22:38:42.739Z,98523.84
2022-10-16T22:41:12.310Z,98533.94
2022-10-16T22:43:43.377Z,98523.25
2022-10-16T22:46:14.252Z,98527.53
2022-10-16T22:48:42.302Z,98530.88
2022-10-16T22:51:14.113Z,98528.19
2022-10-16T22:53:43.757Z,98535.28
2022-10-16T22:56:11.885Z,98529.44
2022-10-16T22:58:39.498Z,98525.94
2022-10-16T23:01:38.809Z,98530.53
2022-10-16T23:04:07.569Z,98532.59
2022-10-16T23:06:35.293Z,98533.72
2022-10-16T23:09:03.003Z,98533.00
2022-10-16T23:11:31.174Z,98525.66
2022-10-16T23:13:58.709Z,98525.25
2022-10-16T23:16:26.573Z,98523.75
2022-10-16T23:18:54.102Z,98532.59
2022-10-16T23:21:24.819Z,98531.94
2022-10-16T23:23:53.752Z,98530.75
2022-10-16T23:26:27.678Z,98535.59
2022-10-16T23:28:59.385Z,98536.03
2022-10-16T23:31:28.279Z,98536.31
2022-10-16T23:33:59.710Z,98543.34
2022-10-16T23:36:27.147Z,98538.16
2022-10-16T23:38:55.705Z,98534.31
2022-10-16T23:41:23.279Z,98528.03
2022-10-16T23:43:51.684Z,98534.31
2022-10-16T23:46:19.075Z,98539.28
2022-10-16T23:48:46.703Z,98541.63
2022-10-16T23:51:14.270Z,98533.50
2022-10-16T23:53:41.761Z,98537.44
2022-10-16T23:56:09.640Z,98534.03
2022-10-16T23:58:37.121Z,98541.72
